Daybreak2
, South Jordan
Last Weather Update:05/18/2012 10:00:00 AM
Date
ETo
ETc
Rain
Irrigation
Req
Temp
Max
Temp
Min
Temp
Avg
Avg RH
Avg Wind
Avg Solar
inches
inches
incehs
inches
F
F
F
%
%
watts/m2
04/01/2012 0.07" 0.00" 0.07" -0.07" 64.0° 32.0° 43.4° 60.2% 11.3 MPH 91.6w/m2
04/02/2012 0.13" 0.01" 0.00" 0.01" 47.9° 29.9° 39.1° 42.2% 10.8 MPH 273.1w/m2
04/03/2012 0.15" 0.01" 0.00" 0.01" 57.8° 34.0° 45.7° 46.6% 5.2 MPH 266.9w/m2
04/04/2012 0.23" 0.02" 0.00" 0.02" 72.3° 44.1° 56.0° 36.5% 10.6 MPH 258.9w/m2
04/05/2012 0.10" 0.01" 0.00" 0.01" 48.3° 34.6° 42.6° 49.4% 5.0 MPH 170.8w/m2
04/06/2012 0.08" 0.01" 0.00" 0.01" 42.1° 29.1° 35.8° 58.6% 6.5 MPH 155.3w/m2
04/07/2012 0.17" 0.02" 0.00" 0.02" 60.5° 26.7° 43.0° 36.0% 6.9 MPH 275.9w/m2
04/08/2012 0.22" 0.04" 0.00" 0.04" 70.9° 41.0° 55.4° 21.0% 8.1 MPH 282.0w/m2
04/09/2012 0.24" 0.04" 0.00" 0.04" 75.8° 47.5° 60.3° 17.3% 8.0 MPH 275.4w/m2
04/10/2012 0.23" 0.05" 0.00" 0.05" 77.3° 52.1° 63.6° 17.6% 8.4 MPH 213.4w/m2
04/11/2012 0.20" 0.04" 0.18" -0.14" 73.5° 41.7° 56.9° 36.0% 9.3 MPH 180.4w/m2
04/12/2012 0.06" 0.02" 0.33" -0.31" 48.0° 34.2° 41.3° 74.8% 8.0 MPH 79.4w/m2
04/13/2012 0.12" 0.03" 0.01" 0.02" 52.8° 34.6° 43.9° 63.9% 7.4 MPH 233.5w/m2
04/14/2012 0.08" 0.02" 0.13" -0.11" 50.0° 35.7° 42.4° 74.3% 6.1 MPH 158.3w/m2
04/15/2012 0.14" 0.04" 0.00" 0.04" 54.6° 38.6° 46.3° 50.8% 6.7 MPH 226.8w/m2
04/16/2012 0.17" 0.05" 0.00" 0.05" 59.9° 37.9° 50.7° 35.0% 5.0 MPH 277.8w/m2
04/17/2012 0.12" 0.04" 0.30" -0.26" 55.4° 41.9° 49.9° 60.4% 7.2 MPH 199.7w/m2
04/18/2012 0.08" 0.03" 0.00" 0.03" 54.5° 44.5° 50.2° 66.0% 7.2 MPH 96.9w/m2
04/19/2012 0.13" 0.05" 0.00" 0.05" 59.4° 43.8° 50.4° 63.8% 5.6 MPH 210.9w/m2
04/20/2012 0.17" 0.07" 0.00" 0.07" 67.3° 42.7° 55.9° 54.2% 5.7 MPH 249.8w/m2
04/21/2012 0.23" 0.10" 0.00" 0.10" 76.4° 50.8° 63.4° 40.1% 6.9 MPH 298.6w/m2
04/22/2012 0.25" 0.11" 0.00" 0.11" 83.1° 53.9° 68.8° 28.7% 6.2 MPH 288.3w/m2
04/23/2012 0.26" 0.12" 0.00" 0.12" 84.9° 60.0° 71.6° 23.0% 7.6 MPH 239.3w/m2
04/24/2012 0.31" 0.15" 0.00" 0.15" 83.0° 65.7° 73.8° 17.4% 9.1 MPH 278.9w/m2
04/25/2012 0.19" 0.09" 0.04" 0.05" 73.5° 58.2° 66.0° 36.4% 8.3 MPH 164.1w/m2
04/26/2012 0.20" 0.11" 0.05" 0.06" 75.7° 40.9° 61.8° 44.5% 10.1 MPH 189.6w/m2
04/27/2012 0.11" 0.06" 0.07" -0.01" 47.7° 38.3° 42.9° 57.0% 8.8 MPH 185.0w/m2
04/28/2012 0.17" 0.09" 0.00" 0.09" 51.2° 31.3° 43.3° 40.6% 6.4 MPH 311.6w/m2
04/29/2012 0.19" 0.11" 0.00" 0.11" 58.9° 38.8° 50.3° 41.6% 6.1 MPH 309.4w/m2
04/30/2012 0.21" 0.13" 0.03" 0.10" 73.1° 46.1° 59.8° 34.3% 8.3 MPH 231.7w/m2
Totals: 5.01" 1.66" 1.21" 0.45" 84.9° 26.7° 52.5° 44.3% 7.6 MPH 222.4w/m2